createdAt,value
2022-09-25T00:01:16.285Z,63.54
2022-09-25T00:03:43.589Z,63.81
2022-09-25T00:06:21.281Z,63.63
2022-09-25T00:08:49.791Z,63.62
2022-09-25T00:11:30.164Z,63.80
2022-09-25T00:14:00.520Z,63.70
2022-09-25T00:16:32.463Z,63.82
2022-09-25T00:19:00.793Z,63.86
2022-09-25T00:21:28.462Z,63.69
2022-09-25T00:23:55.718Z,63.79
2022-09-25T00:26:28.297Z,63.80
2022-09-25T00:28:56.519Z,63.94
2022-09-25T00:31:25.325Z,63.76
2022-09-25T00:33:54.375Z,63.83
2022-09-25T00:36:21.600Z,63.61
2022-09-25T00:38:49.269Z,63.80
2022-09-25T00:41:20.175Z,63.78
2022-09-25T00:43:52.083Z,63.67
2022-09-25T00:46:44.267Z,63.49
2022-09-25T00:49:20.001Z,63.57
2022-09-25T00:51:54.633Z,63.81
2022-09-25T00:54:38.842Z,64.07
2022-09-25T00:57:13.056Z,63.96
2022-09-25T00:59:50.848Z,63.88
2022-09-25T01:02:32.043Z,64.07
2022-09-25T01:05:05.532Z,63.97
2022-09-25T01:07:38.507Z,64.05
2022-09-25T01:10:08.298Z,64.32
2022-09-25T01:12:45.252Z,64.16
2022-09-25T01:15:17.189Z,63.93
2022-09-25T01:18:13.754Z,63.74
2022-09-25T01:20:58.476Z,63.92
2022-09-25T01:23:49.773Z,63.97
2022-09-25T01:27:06.618Z,63.91
2022-09-25T01:30:06.720Z,64.04
2022-09-25T01:32:48.519Z,64.03
2022-09-25T01:35:30.864Z,64.06
2022-09-25T01:38:26.903Z,63.84
2022-09-25T01:41:28.092Z,64.00
2022-09-25T01:44:16.895Z,64.06
2022-09-25T01:46:56.965Z,63.99
2022-09-25T01:49:33.965Z,64.29
2022-09-25T01:52:10.883Z,64.51
2022-09-25T01:54:51.881Z,64.27
2022-09-25T01:57:42.624Z,64.29
2022-09-25T02:00:15.508Z,64.39
2022-09-25T02:03:10.933Z,64.32
2022-09-25T02:05:53.170Z,63.98
2022-09-25T02:08:48.407Z,63.95
2022-09-25T02:11:15.845Z,63.98
2022-09-25T02:13:59.885Z,63.87
2022-09-25T02:16:41.624Z,63.81
2022-09-25T02:19:11.555Z,63.85
2022-09-25T02:22:02.496Z,63.96
2022-09-25T02:24:58.498Z,64.07
2022-09-25T02:27:28.536Z,64.13
2022-09-25T02:29:57.526Z,64.08
2022-09-25T02:32:32.388Z,64.07
2022-09-25T02:35:00.750Z,64.24
2022-09-25T02:37:30.888Z,64.17
2022-09-25T02:40:01.620Z,64.08
2022-09-25T02:43:14.683Z,64.30
2022-09-25T02:46:11.514Z,63.95
2022-09-25T02:49:10.460Z,63.87
2022-09-25T02:52:10.229Z,63.92
2022-09-25T02:54:53.179Z,64.03
2022-09-25T02:57:37.653Z,64.23
2022-09-25T03:00:08.142Z,64.10
2022-09-25T03:02:42.269Z,64.44
2022-09-25T03:05:15.665Z,64.16
2022-09-25T03:07:42.915Z,64.25
2022-09-25T03:10:10.349Z,64.18
2022-09-25T03:12:37.678Z,64.05
2022-09-25T03:15:06.376Z,63.90
2022-09-25T03:17:34.332Z,63.83
2022-09-25T03:20:01.698Z,63.84
2022-09-25T03:22:29.386Z,63.65
2022-09-25T03:24:59.052Z,63.65
2022-09-25T03:27:26.234Z,63.67
2022-09-25T03:29:53.342Z,63.61
2022-09-25T03:32:20.897Z,63.64
2022-09-25T03:34:48.291Z,63.61
2022-09-25T03:37:15.472Z,63.74
2022-09-25T03:39:42.645Z,63.81
2022-09-25T03:42:09.854Z,63.98
2022-09-25T03:44:36.996Z,63.88
2022-09-25T03:47:04.260Z,63.90
2022-09-25T03:49:31.458Z,63.88
2022-09-25T03:51:58.735Z,63.99
2022-09-25T03:54:28.957Z,63.79
2022-09-25T03:56:56.166Z,63.94
2022-09-25T03:59:23.381Z,63.76
2022-09-25T04:01:50.571Z,63.52
2022-09-25T04:04:17.773Z,63.55
2022-09-25T04:06:44.964Z,63.45
2022-09-25T04:09:12.418Z,63.50
2022-09-25T04:11:39.539Z,63.43
2022-09-25T04:14:06.996Z,63.75
2022-09-25T04:16:34.471Z,63.81
2022-09-25T04:19:01.895Z,64.02
2022-09-25T04:21:29.141Z,63.83
2022-09-25T04:23:58.053Z,63.98
2022-09-25T04:26:25.920Z,63.84
2022-09-25T04:28:53.081Z,63.97
2022-09-25T04:31:20.411Z,63.72
2022-09-25T04:33:47.719Z,63.94
2022-09-25T04:36:18.343Z,64.11
2022-09-25T04:38:46.285Z,64.00
2022-09-25T04:41:14.164Z,64.07
2022-09-25T04:43:41.348Z,64.34
2022-09-25T04:46:16.734Z,64.25
2022-09-25T04:48:47.650Z,64.04
2022-09-25T04:51:14.809Z,64.07
2022-09-25T04:53:42.306Z,64.19
2022-09-25T04:56:15.056Z,64.13
2022-09-25T04:58:50.225Z,64.23
2022-09-25T05:01:20.614Z,64.04
2022-09-25T05:03:50.448Z,64.26
2022-09-25T05:06:17.740Z,64.14
2022-09-25T05:08:47.307Z,63.91
2022-09-25T05:11:14.464Z,63.92
2022-09-25T05:13:41.685Z,63.83
2022-09-25T05:16:08.853Z,63.89
2022-09-25T05:18:36.129Z,63.66
2022-09-25T05:21:05.105Z,63.64
2022-09-25T05:23:32.481Z,63.39
2022-09-25T05:25:59.778Z,63.38
2022-09-25T05:28:26.947Z,63.23
2022-09-25T05:30:54.699Z,63.17
2022-09-25T05:33:21.883Z,63.13
2022-09-25T05:35:49.054Z,63.10
2022-09-25T05:38:16.271Z,63.37
2022-09-25T05:40:43.572Z,63.22
2022-09-25T05:43:10.844Z,63.30
2022-09-25T05:45:38.236Z,63.39
2022-09-25T05:48:08.277Z,63.28
2022-09-25T05:50:36.221Z,63.48
2022-09-25T05:53:05.732Z,63.58
2022-09-25T05:55:33.386Z,63.91
2022-09-25T05:58:04.898Z,63.99
2022-09-25T06:00:33.380Z,64.07
2022-09-25T06:03:03.830Z,64.02
2022-09-25T06:05:31.133Z,64.02
2022-09-25T06:07:58.578Z,64.03
2022-09-25T06:10:27.075Z,63.75
2022-09-25T06:13:02.886Z,63.80
2022-09-25T06:15:36.317Z,63.98
2022-09-25T06:18:09.532Z,64.10
2022-09-25T06:20:37.353Z,64.02
2022-09-25T06:23:04.677Z,64.03
2022-09-25T06:25:32.937Z,63.89
2022-09-25T06:28:01.893Z,64.08
2022-09-25T06:30:33.853Z,64.22
2022-09-25T06:33:03.357Z,64.38
2022-09-25T06:35:30.724Z,64.66
2022-09-25T06:38:00.316Z,64.67
2022-09-25T06:40:30.607Z,64.58
2022-09-25T06:43:00.685Z,64.44
2022-09-25T06:45:32.328Z,64.29
2022-09-25T06:48:14.450Z,64.54
2022-09-25T06:50:52.672Z,64.23
2022-09-25T06:53:22.643Z,64.11
2022-09-25T06:55:50.559Z,63.72
2022-09-25T06:58:23.688Z,63.62
2022-09-25T07:00:54.391Z,63.16
2022-09-25T07:03:22.264Z,63.02
2022-09-25T07:05:49.676Z,63.24
2022-09-25T07:08:19.154Z,63.29
2022-09-25T07:10:55.736Z,63.34
2022-09-25T07:13:27.426Z,63.07
2022-09-25T07:16:04.311Z,62.98
2022-09-25T07:18:33.066Z,62.77
2022-09-25T07:21:04.025Z,62.92
2022-09-25T07:23:31.514Z,62.78
2022-09-25T07:26:15.882Z,62.55
2022-09-25T07:28:44.278Z,62.27
2022-09-25T07:31:22.718Z,62.21
2022-09-25T07:33:50.262Z,61.89
2022-09-25T07:36:18.782Z,62.03
2022-09-25T07:38:50.965Z,61.74
2022-09-25T07:41:20.542Z,61.48
2022-09-25T07:43:47.899Z,60.27
2022-09-25T07:46:15.139Z,60.35
2022-09-25T07:48:42.349Z,60.45
2022-09-25T07:51:12.184Z,60.51
2022-09-25T07:53:39.879Z,60.68
2022-09-25T07:56:07.673Z,60.67
2022-09-25T07:58:35.407Z,60.58
2022-09-25T08:01:06.549Z,60.12
2022-09-25T08:03:34.936Z,60.09
2022-09-25T08:06:06.147Z,59.99
2022-09-25T08:08:36.533Z,59.63
2022-09-25T08:11:08.065Z,59.31
2022-09-25T08:13:36.433Z,58.55
2022-09-25T08:16:13.487Z,58.82
2022-09-25T08:18:43.178Z,60.11
2022-09-25T08:21:12.152Z,60.19
2022-09-25T08:23:41.903Z,60.39
2022-09-25T08:26:12.481Z,60.28
2022-09-25T08:28:39.641Z,60.28
2022-09-25T08:31:06.925Z,60.53
2022-09-25T08:33:35.156Z,60.13
2022-09-25T08:36:05.405Z,60.16
2022-09-25T08:38:33.406Z,59.83
2022-09-25T08:41:05.807Z,59.55
2022-09-25T08:43:40.650Z,59.86
2022-09-25T08:46:36.351Z,59.41
2022-09-25T08:49:04.405Z,59.34
2022-09-25T08:51:35.306Z,59.07
2022-09-25T08:54:05.382Z,58.81
2022-09-25T08:56:35.102Z,58.41
2022-09-25T08:59:24.804Z,58.18
2022-09-25T09:02:01.017Z,58.17
2022-09-25T09:04:45.204Z,58.13
2022-09-25T09:07:27.306Z,57.62
2022-09-25T09:10:27.178Z,56.58
2022-09-25T09:13:14.944Z,56.18
2022-09-25T09:15:55.987Z,55.55
2022-09-25T09:18:29.849Z,55.67
2022-09-25T09:21:09.820Z,55.57
2022-09-25T09:23:58.492Z,55.33
2022-09-25T09:26:57.912Z,54.31
2022-09-25T09:29:49.069Z,54.04
2022-09-25T09:32:51.726Z,54.15
2022-09-25T09:35:33.434Z,54.24
2022-09-25T09:38:25.808Z,53.98
2022-09-25T09:41:10.643Z,54.03
2022-09-25T09:43:46.538Z,53.96
2022-09-25T09:46:30.445Z,54.26
2022-09-25T09:49:29.534Z,54.22
2022-09-25T09:52:04.944Z,53.83
2022-09-25T09:54:58.101Z,53.16
2022-09-25T09:57:29.663Z,53.74
2022-09-25T10:00:13.483Z,53.66
2022-09-25T10:02:51.224Z,53.74
2022-09-25T10:05:42.043Z,53.13
2022-09-25T10:08:13.053Z,52.87
2022-09-25T10:11:01.065Z,52.60
2022-09-25T10:13:38.818Z,52.20
2022-09-25T10:16:16.847Z,52.29
2022-09-25T10:18:46.734Z,52.21
2022-09-25T10:21:21.253Z,52.25
2022-09-25T10:23:55.342Z,52.40
2022-09-25T10:26:34.243Z,52.06
2022-09-25T10:29:27.729Z,51.33
2022-09-25T10:32:04.333Z,51.52
2022-09-25T10:34:31.999Z,51.23
2022-09-25T10:37:15.045Z,50.87
2022-09-25T10:39:45.220Z,50.65
2022-09-25T10:43:03.928Z,50.86
2022-09-25T10:45:36.838Z,50.71
2022-09-25T10:48:29.640Z,51.17
2022-09-25T10:51:09.428Z,51.04
2022-09-25T10:53:37.576Z,51.41
2022-09-25T10:56:11.600Z,51.31
2022-09-25T10:58:55.428Z,51.59
2022-09-25T11:01:39.623Z,51.25
2022-09-25T11:04:31.746Z,50.75
2022-09-25T11:07:07.889Z,51.25
2022-09-25T11:09:44.878Z,51.49
2022-09-25T11:12:23.967Z,51.60
2022-09-25T11:15:05.482Z,52.19
2022-09-25T11:17:42.553Z,52.78
2022-09-25T11:20:29.635Z,53.10
2022-09-25T11:23:27.057Z,53.30
2022-09-25T11:26:12.844Z,54.08
2022-09-25T11:28:47.624Z,53.29
2022-09-25T11:31:42.545Z,51.51
2022-09-25T11:34:21.217Z,50.29
2022-09-25T11:36:55.279Z,49.47
2022-09-25T11:39:45.301Z,49.84
2022-09-25T11:43:09.044Z,50.23
2022-09-25T11:45:49.301Z,50.70
2022-09-25T11:49:08.578Z,51.39
2022-09-25T11:52:21.106Z,52.63
2022-09-25T11:55:43.490Z,53.81
2022-09-25T11:58:36.444Z,53.94
2022-09-25T12:01:25.009Z,54.23
2022-09-25T12:04:00.407Z,54.82
2022-09-25T12:06:44.790Z,54.97
2022-09-25T12:09:41.095Z,55.55
2022-09-25T12:12:38.613Z,55.81
2022-09-25T12:15:24.226Z,55.56
2022-09-25T12:18:34.348Z,55.40
2022-09-25T12:21:14.701Z,55.65
2022-09-25T12:24:17.112Z,56.19
2022-09-25T12:26:55.889Z,56.94
2022-09-25T12:29:42.304Z,56.93
2022-09-25T12:32:41.413Z,56.10
2022-09-25T12:35:37.172Z,55.58
2022-09-25T12:38:23.074Z,54.60
2022-09-25T12:41:10.359Z,55.10
2022-09-25T12:44:11.583Z,55.51
2022-09-25T12:46:58.676Z,55.50
2022-09-25T12:50:03.287Z,56.55
2022-09-25T12:52:41.618Z,55.37
2022-09-25T12:55:27.722Z,55.57
2022-09-25T12:58:37.591Z,55.24
2022-09-25T13:01:17.339Z,55.36
2022-09-25T13:04:05.016Z,55.76
2022-09-25T13:06:44.529Z,56.14
2022-09-25T13:09:48.854Z,55.88
2022-09-25T13:12:28.266Z,56.10
2022-09-25T13:15:04.162Z,56.30
2022-09-25T13:17:31.407Z,55.92
2022-09-25T13:20:26.390Z,56.46
2022-09-25T13:23:03.823Z,56.84
2022-09-25T13:25:42.432Z,57.04
2022-09-25T13:28:23.612Z,56.74
2022-09-25T13:31:11.566Z,57.11
2022-09-25T13:34:01.591Z,57.33
2022-09-25T13:36:33.443Z,56.78
2022-09-25T13:39:05.646Z,57.04
2022-09-25T13:41:33.256Z,57.26
2022-09-25T13:44:47.908Z,57.06
2022-09-25T13:47:26.925Z,57.39
2022-09-25T13:50:18.815Z,57.51
2022-09-25T13:52:45.954Z,57.73
2022-09-25T13:55:17.130Z,58.07
2022-09-25T13:57:59.303Z,57.98
2022-09-25T14:00:36.357Z,58.33
2022-09-25T14:03:05.507Z,58.61
2022-09-25T14:05:37.233Z,58.52
2022-09-25T14:08:15.203Z,58.99
2022-09-25T14:10:51.806Z,59.49
2022-09-25T14:13:22.482Z,59.73
2022-09-25T14:15:53.544Z,59.59
2022-09-25T14:18:40.950Z,60.10
2022-09-25T14:21:09.016Z,60.56
2022-09-25T14:23:50.939Z,60.23
2022-09-25T14:26:22.166Z,60.31
2022-09-25T14:28:52.155Z,60.31
2022-09-25T14:31:31.084Z,60.07
2022-09-25T14:34:16.478Z,60.01
2022-09-25T14:37:01.532Z,60.78
2022-09-25T14:39:54.357Z,61.11
2022-09-25T14:43:00.673Z,61.98
2022-09-25T14:45:45.838Z,62.18
2022-09-25T14:48:23.198Z,62.87
2022-09-25T14:50:58.997Z,62.71
2022-09-25T14:53:36.530Z,62.94
2022-09-25T14:56:05.603Z,62.39
2022-09-25T14:58:33.714Z,62.33
2022-09-25T15:01:32.006Z,62.52
2022-09-25T15:04:07.781Z,62.77
2022-09-25T15:06:40.145Z,62.92
2022-09-25T15:09:47.691Z,62.56
2022-09-25T15:12:25.162Z,62.50
2022-09-25T15:15:07.971Z,62.34
2022-09-25T15:17:48.112Z,62.12
2022-09-25T15:20:23.167Z,62.22
2022-09-25T15:23:02.991Z,62.14
2022-09-25T15:25:47.534Z,62.77
2022-09-25T15:28:19.441Z,63.18
2022-09-25T15:30:59.733Z,63.44
2022-09-25T15:33:34.279Z,63.78
2022-09-25T15:36:17.259Z,63.79
2022-09-25T15:38:53.054Z,63.92
2022-09-25T15:41:22.326Z,63.96
2022-09-25T15:43:50.913Z,64.39
2022-09-25T15:46:45.215Z,64.38
2022-09-25T15:49:38.651Z,64.60
2022-09-25T15:52:26.788Z,63.96
2022-09-25T15:54:54.257Z,63.49
2022-09-25T15:57:30.388Z,62.80
2022-09-25T16:00:04.688Z,62.83
2022-09-25T16:02:51.796Z,62.74
2022-09-25T16:05:28.735Z,62.61
2022-09-25T16:08:24.892Z,62.88
2022-09-25T16:11:25.327Z,63.40
2022-09-25T16:14:25.970Z,63.64
2022-09-25T16:16:56.936Z,63.56
2022-09-25T16:19:26.904Z,63.51
2022-09-25T16:21:54.981Z,63.26
2022-09-25T16:24:26.806Z,63.50
2022-09-25T16:27:05.111Z,63.41
2022-09-25T16:29:39.500Z,63.55
2022-09-25T16:32:18.838Z,63.67
2022-09-25T16:35:03.552Z,63.85
2022-09-25T16:37:36.345Z,63.89
2022-09-25T16:40:29.429Z,64.18
2022-09-25T16:42:58.131Z,64.37
2022-09-25T16:45:29.883Z,63.94
2022-09-25T16:47:57.803Z,63.89
2022-09-25T16:50:28.209Z,63.60
2022-09-25T16:52:55.493Z,63.67
2022-09-25T16:55:27.066Z,63.50
2022-09-25T16:57:56.227Z,63.59
2022-09-25T17:00:27.733Z,63.39
2022-09-25T17:02:55.621Z,63.48
2022-09-25T17:05:27.632Z,63.46
2022-09-25T17:07:58.477Z,63.45
2022-09-25T17:10:29.416Z,63.59
2022-09-25T17:13:00.941Z,63.51
2022-09-25T17:15:36.473Z,63.62
2022-09-25T17:18:21.500Z,63.64
2022-09-25T17:20:54.618Z,63.95
2022-09-25T17:23:24.559Z,63.85
2022-09-25T17:26:02.694Z,64.26
2022-09-25T17:28:30.672Z,64.47
2022-09-25T17:30:57.980Z,64.58
2022-09-25T17:33:25.248Z,64.48
2022-09-25T17:36:01.911Z,64.72
2022-09-25T17:38:29.269Z,64.65
2022-09-25T17:41:00.464Z,64.63
2022-09-25T17:43:30.461Z,64.55
2022-09-25T17:46:00.664Z,64.19
2022-09-25T17:48:31.442Z,64.27
2022-09-25T17:51:03.541Z,64.16
2022-09-25T17:53:33.775Z,64.16
2022-09-25T17:56:02.487Z,63.81
2022-09-25T17:58:32.993Z,63.72
2022-09-25T18:01:02.172Z,63.77
2022-09-25T18:03:29.680Z,63.75
2022-09-25T18:05:57.585Z,64.00
2022-09-25T18:08:24.939Z,64.10
2022-09-25T18:10:55.367Z,64.13
2022-09-25T18:13:23.160Z,64.17
2022-09-25T18:16:00.056Z,64.22
2022-09-25T18:18:27.771Z,64.18
2022-09-25T18:20:55.223Z,63.94
2022-09-25T18:23:24.537Z,63.95
2022-09-25T18:25:53.575Z,63.95
2022-09-25T18:28:22.481Z,63.89
2022-09-25T18:30:51.618Z,64.01
2022-09-25T18:33:20.954Z,64.07
2022-09-25T18:35:49.998Z,64.32
2022-09-25T18:38:18.911Z,64.24
2022-09-25T18:40:46.876Z,64.59
2022-09-25T18:43:14.737Z,64.41
2022-09-25T18:45:49.615Z,64.51
2022-09-25T18:48:21.420Z,64.55
2022-09-25T18:50:59.769Z,64.67
2022-09-25T18:53:27.965Z,64.74
2022-09-25T18:55:58.024Z,64.79
2022-09-25T18:58:31.968Z,64.55
2022-09-25T19:01:00.426Z,64.50
2022-09-25T19:03:29.603Z,64.45
2022-09-25T19:05:59.927Z,64.64
2022-09-25T19:08:28.930Z,64.54
2022-09-25T19:10:57.670Z,64.35
2022-09-25T19:13:30.637Z,64.41
2022-09-25T19:15:57.971Z,64.43
2022-09-25T19:18:27.204Z,64.60
2022-09-25T19:20:57.325Z,64.62
2022-09-25T19:23:28.406Z,64.73
2022-09-25T19:26:02.940Z,64.54
2022-09-25T19:28:32.875Z,64.75
2022-09-25T19:31:16.408Z,64.73
2022-09-25T19:33:44.126Z,64.76
2022-09-25T19:36:27.953Z,64.80
2022-09-25T19:38:56.666Z,64.78
2022-09-25T19:41:31.396Z,64.86
2022-09-25T19:44:08.116Z,64.71
2022-09-25T19:46:40.020Z,64.52
2022-09-25T19:49:08.130Z,64.57
2022-09-25T19:51:37.742Z,64.58
2022-09-25T19:54:12.234Z,64.39
2022-09-25T19:56:42.452Z,64.71
2022-09-25T19:59:17.798Z,64.70
2022-09-25T20:01:48.181Z,64.42
2022-09-25T20:04:19.014Z,64.23
2022-09-25T20:06:52.198Z,64.08
2022-09-25T20:09:23.290Z,64.12
2022-09-25T20:11:53.164Z,64.31
2022-09-25T20:14:21.530Z,64.23
2022-09-25T20:16:48.646Z,64.28
2022-09-25T20:19:19.195Z,64.35
2022-09-25T20:21:48.164Z,64.39
2022-09-25T20:24:15.974Z,64.41
2022-09-25T20:26:43.286Z,64.44
2022-09-25T20:29:17.082Z,64.31
2022-09-25T20:31:46.758Z,64.26
2022-09-25T20:34:19.874Z,64.10
2022-09-25T20:36:49.295Z,63.73
2022-09-25T20:39:21.148Z,63.71
2022-09-25T20:41:51.652Z,63.98
2022-09-25T20:44:19.309Z,64.20
2022-09-25T20:46:47.440Z,64.25
2022-09-25T20:49:17.109Z,64.57
2022-09-25T20:51:46.544Z,64.53
2022-09-25T20:54:13.752Z,64.52
2022-09-25T20:56:41.022Z,64.40
2022-09-25T20:59:11.354Z,64.19
2022-09-25T21:01:41.140Z,64.08
2022-09-25T21:04:09.252Z,63.71
2022-09-25T21:06:41.647Z,63.68
2022-09-25T21:09:20.620Z,63.25
2022-09-25T21:11:48.602Z,63.21
2022-09-25T21:14:26.598Z,63.47
2022-09-25T21:16:55.867Z,63.57
2022-09-25T21:19:24.751Z,63.60
2022-09-25T21:21:52.126Z,63.60
2022-09-25T21:24:22.523Z,63.78
2022-09-25T21:26:54.441Z,63.49
2022-09-25T21:29:22.919Z,63.50
2022-09-25T21:31:51.080Z,63.18
2022-09-25T21:34:19.672Z,63.41
2022-09-25T21:36:48.430Z,63.34
2022-09-25T21:39:16.872Z,63.50
2022-09-25T21:41:45.312Z,63.69
2022-09-25T21:44:16.167Z,63.48
2022-09-25T21:46:45.007Z,63.53
2022-09-25T21:49:22.247Z,63.59
2022-09-25T21:51:49.967Z,63.68
2022-09-25T21:54:17.483Z,63.55
2022-09-25T21:56:44.786Z,63.84
2022-09-25T21:59:13.161Z,63.75
2022-09-25T22:01:41.475Z,63.79
2022-09-25T22:04:13.616Z,63.85
2022-09-25T22:06:47.420Z,64.03
2022-09-25T22:09:20.162Z,63.98
2022-09-25T22:11:48.895Z,63.74
2022-09-25T22:14:18.080Z,63.50
2022-09-25T22:16:49.273Z,63.54
2022-09-25T22:19:29.412Z,63.69
2022-09-25T22:21:58.738Z,63.92
2022-09-25T22:24:26.923Z,64.09
2022-09-25T22:26:56.239Z,64.21
2022-09-25T22:29:24.696Z,64.18
2022-09-25T22:31:52.820Z,64.21
2022-09-25T22:34:24.651Z,64.01
2022-09-25T22:36:58.921Z,63.80
2022-09-25T22:39:28.673Z,63.93
2022-09-25T22:41:56.419Z,63.78
2022-09-25T22:44:23.777Z,64.00
2022-09-25T22:46:51.224Z,64.03
2022-09-25T22:49:18.750Z,64.29
2022-09-25T22:51:45.879Z,64.21
2022-09-25T22:54:13.895Z,64.22
2022-09-25T22:56:41.891Z,63.81
2022-09-25T22:59:14.403Z,63.74
2022-09-25T23:01:50.367Z,64.07
2022-09-25T23:04:21.733Z,64.04
2022-09-25T23:06:50.074Z,64.09
2022-09-25T23:09:21.058Z,64.11
2022-09-25T23:11:48.869Z,64.00
2022-09-25T23:14:21.672Z,64.32
2022-09-25T23:16:51.390Z,64.00
2022-09-25T23:19:20.117Z,63.07
2022-09-25T23:21:48.405Z,62.68
2022-09-25T23:24:18.426Z,62.52
2022-09-25T23:26:46.549Z,61.93
2022-09-25T23:29:17.046Z,61.89
2022-09-25T23:31:45.917Z,61.39
2022-09-25T23:34:13.866Z,61.54
2022-09-25T23:36:41.413Z,60.25
2022-09-25T23:39:17.067Z,60.19
2022-09-25T23:41:45.175Z,60.09
2022-09-25T23:44:12.565Z,60.39
2022-09-25T23:46:42.404Z,60.95
2022-09-25T23:49:10.485Z,61.13
2022-09-25T23:51:39.131Z,60.62
2022-09-25T23:54:06.656Z,60.30
2022-09-25T23:56:35.727Z,59.83
2022-09-25T23:59:04.375Z,59.61
